Latest Weather Observations for Kurnell

IDN60801

Issued at 11:04 pm EDT Tuesday 27 January 2015 (issued every 30 minutes, with the page automatically refreshed every 10 minutes)

About weather observations | Map of weather stations | Latest weather observations for NSW | Other Formats
Station Details ID: 066043 Name: KURNELL AWS Lat: -34.00 Lon: 151.21 Height: 4.0 m
Data from the previous 72 hours. | See also: Recent months for locations in New South Wales
Date/Time
EDT
Temp
°C
App
Temp
°C
Dew
Point
Rel
Hum
%
Delta-T
°C
Wind Press
QNH
hPa
Press
MSL
hPa
Rain
since 9 am
mm
Dir
 
Spd
km/h
Gust
km/h
Spd
kts
Gust
kts
27/11:00pm - - - - - SW 17 20 9 11 - - -
27/10:30pm - - - - - SW 11 17 6 9 - - -
27/10:00pm - - - - - ESE 11 15 6 8 - - -
27/09:30pm - - - - - SE 19 26 10 14 - - -
27/09:00pm - - - - - SW 9 13 5 7 - - -
27/08:30pm - - - - - SSE 4 9 2 5 - - -
27/08:00pm - - - - - ENE 17 19 9 10 - - -
27/07:30pm - - - - - ENE 19 24 10 13 - - -
27/07:00pm - - - - - WSW 9 13 5 7 - - -
27/06:30pm - - - - - WSW 11 17 6 9 - - -
27/06:00pm - - - - - N 6 9 3 5 - - -
27/05:30pm - - - - - N 13 15 7 8 - - -
27/05:00pm - - - - - ENE 17 20 9 11 - - -
27/04:30pm - - - - - S 17 26 9 14 - - -
27/04:00pm - - - - - S 15 20 8 11 - - -
27/03:30pm - - - - - S 13 19 7 10 - - -
27/03:00pm - - - - - S 20 30 11 16 - - -
27/02:30pm - - - - - S 11 17 6 9 - - -
27/02:00pm - - - - - SE 15 20 8 11 - - -
27/01:30pm - - - - - E 11 17 6 9 - - -
27/01:00pm - - - - - ENE 15 19 8 10 - - -
27/12:30pm - - - - - ESE 9 11 5 6 - - -
27/12:00pm - - - - - SSE 13 17 7 9 - - -
27/11:30am - - - - - SE 13 17 7 9 - - -
27/11:00am - - - - - SE 19 26 10 14 - - -
27/10:30am - - - - - E 19 28 10 15 - - -
27/10:00am - - - - - E 15 20 8 11 - - -
27/09:30am - - - - - E 15 20 8 11 - - -
27/09:00am - - - - - SE 20 28 11 15 - - -
27/08:30am - - - - - SSE 20 28 11 15 - - -
27/08:00am - - - - - S 19 28 10 15 - - -
27/07:30am - - - - - S 20 28 11 15 - - -
27/07:00am - - - - - S 19 26 10 14 - - -
27/06:30am - - - - - S 19 28 10 15 - - -
27/06:00am - - - - - S 24 32 13 17 - - -
27/05:30am - - - - - S 19 28 10 15 - - -
27/05:00am - - - - - S 17 24 9 13 - - -
27/04:30am - - - - - S 15 19 8 10 - - -
27/04:00am - - - - - SSE 15 19 8 10 - - -
27/03:30am - - - - - ESE 17 20 9 11 - - -
27/03:00am - - - - - E 17 28 9 15 - - -
27/02:30am - - - - - ESE 22 30 12 16 - - -
27/02:00am - - - - - ENE 28 35 15 19 - - -
27/01:39am - - - - - ENE 20 33 11 18 - - -
27/01:30am - - - - - NW 9 24 5 13 - - -
27/01:00am - - - - - SSW 22 28 12 15 - - -
27/12:30am - - - - - SSW 17 20 9 11 - - -
27/12:00am - - - - - SE 15 20 8 11 - - -
 
Date/Time
EDT
Temp
°C
App
Temp
°C
Dew
Point
Rel
Hum
%
Delta-T
°C
Wind Press
QNH
hPa
Press
MSL
hPa
Rain
since 9 am
mm
Dir
 
Spd
km/h
Gust
km/h
Spd
kts
Gust
kts
26/11:30pm - - - - - E 17 26 9 14 - - -
26/11:00pm - - - - - S 17 20 9 11 - - -
26/10:30pm - - - - - SSE 19 28 10 15 - - -
26/10:00pm - - - - - S 17 22 9 12 - - -
26/09:30pm - - - - - SSE 17 24 9 13 - - -
26/09:00pm - - - - - SSE 17 26 9 14 - - -
26/08:30pm - - - - - SSE 15 19 8 10 - - -
26/08:00pm - - - - - ESE 17 24 9 13 - - -
26/07:30pm - - - - - S 15 20 8 11 - - -
26/07:00pm - - - - - S 19 26 10 14 - - -
26/06:30pm - - - - - S 19 28 10 15 - - -
26/06:00pm - - - - - S 24 33 13 18 - - -
26/05:30pm - - - - - S 28 33 15 18 - - -
26/05:00pm - - - - - SSW 28 37 15 20 - - -
26/04:30pm - - - - - SSW 30 39 16 21 - - -
26/04:00pm - - - - - SSW 28 39 15 21 - - -
26/03:30pm - - - - - SSW 30 37 16 20 - - -
26/03:00pm - - - - - SSW 32 39 17 21 - - -
26/02:30pm - - - - - SSW 28 35 15 19 - - -
26/02:00pm - - - - - SSW 24 32 13 17 - - -
26/01:30pm - - - - - S 26 33 14 18 - - -
26/01:00pm - - - - - S 28 35 15 19 - - -
26/12:30pm - - - - - S 22 30 12 16 - - -
26/12:00pm - - - - - S 24 35 13 19 - - -
26/11:30am - - - - - S 24 33 13 18 - - -
26/11:00am - - - - - S 26 39 14 21 - - -
26/10:30am - - - - - SSW 26 35 14 19 - - -
26/10:00am - - - - - SSW 24 33 13 18 - - -
26/09:30am - - - - - SSW 32 39 17 21 - - -
26/09:00am - - - - - SW 30 41 16 22 - - -
26/08:30am - - - - - S 24 33 13 18 - - -
26/08:00am - - - - - S 22 32 12 17 - - -
26/07:30am - - - - - SSW 24 35 13 19 - - -
26/07:00am - - - - - SSW 26 35 14 19 - - -
26/06:30am - - - - - S 28 39 15 21 - - -
26/06:00am - - - - - SSW 26 37 14 20 - - -
26/05:30am - - - - - SSW 24 35 13 19 - - -
26/05:00am - - - - - SSW 32 41 17 22 - - -
26/04:30am - - - - - SW 26 33 14 18 - - -
26/04:00am - - - - - SW 19 33 10 18 - - -
26/03:30am - - - - - SW 24 33 13 18 - - -
26/03:00am - - - - - SW 24 33 13 18 - - -
26/02:30am - - - - - SSW 19 28 10 15 - - -
26/02:00am - - - - - S 22 32 12 17 - - -
26/01:30am - - - - - S 24 35 13 19 - - -
26/01:00am - - - - - S 20 32 11 17 - - -
26/12:30am - - - - - S 26 35 14 19 - - -
26/12:00am - - - - - S 28 39 15 21 - - -
 
Date/Time
EDT
Temp
°C
App
Temp
°C
Dew
Point
Rel
Hum
%
Delta-T
°C
Wind Press
QNH
hPa
Press
MSL
hPa
Rain
since 9 am
mm
Dir
 
Spd
km/h
Gust
km/h
Spd
kts
Gust
kts
25/11:30pm - - - - - S 32 39 17 21 - - -
25/11:00pm - - - - - S 30 35 16 19 - - -
25/10:30pm - - - - - S 35 48 19 26 - - -
25/10:05pm - - - - - S 32 50 17 27 - - -
25/10:00pm - - - - - S 33 50 18 27 - - -
25/09:55pm - - - - - S 32 50 17 27 - - -
25/09:30pm - - - - - S 35 48 19 26 - - -
25/09:00pm - - - - - SSW 41 54 22 29 - - -
25/08:30pm - - - - - S 39 56 21 30 - - -
25/08:06pm - - - - - SSW 35 54 19 29 - - -
25/08:00pm - - - - - SSW 41 54 22 29 - - -
25/07:35pm - - - - - SSW 41 59 22 32 - - -
25/07:30pm - - - - - SSW 41 52 22 28 - - -
25/07:00pm - - - - - SSW 39 52 21 28 - - -
25/06:44pm - - - - - ESE 20 65 11 35 - - -
25/06:43pm - - - - - E 17 41 9 22 - - -
25/06:30pm - - - - - ENE 15 19 8 10 - - -
25/06:00pm - - - - - E 13 15 7 8 - - -
25/05:30pm - - - - - ENE 17 22 9 12 - - -
25/05:00pm - - - - - E 13 17 7 9 - - -
25/04:30pm - - - - - E 19 20 10 11 - - -
25/04:00pm - - - - - ENE 24 30 13 16 - - -
25/03:30pm - - - - - ENE 24 32 13 17 - - -
25/03:00pm - - - - - ENE 32 37 17 20 - - -
25/02:30pm - - - - - ENE 24 32 13 17 - - -
25/02:00pm - - - - - NE 24 32 13 17 - - -
25/01:30pm - - - - - ENE 20 26 11 14 - - -
25/01:00pm - - - - - ENE 20 24 11 13 - - -
25/12:30pm - - - - - ENE 15 19 8 10 - - -
25/12:00pm - - - - - ENE 17 19 9 10 - - -
25/11:30am - - - - - ENE 11 15 6 8 - - -
25/11:00am - - - - - ENE 11 13 6 7 - - -
25/10:30am - - - - - W 6 9 3 5 - - -
25/10:00am - - - - - CALM 0 0 0 0 - - -
25/09:30am - - - - - CALM 0 2 0 1 - - -
25/09:00am - - - - - NNW 9 11 5 6 - - -
25/08:30am - - - - - NNW 11 13 6 7 - - -
25/08:00am - - - - - N 13 15 7 8 - - -
25/07:30am - - - - - NNW 11 15 6 8 - - -
25/07:00am - - - - - NNW 11 13 6 7 - - -
25/06:30am - - - - - N 9 11 5 6 - - -
25/06:00am - - - - - N 9 11 5 6 - - -
25/05:30am - - - - - NNW 9 11 5 6 - - -
25/05:00am - - - - - N 9 9 5 5 - - -
25/04:30am - - - - - NW 11 13 6 7 - - -
25/04:00am - - - - - WNW 15 17 8 9 - - -
25/03:30am - - - - - WNW 17 19 9 10 - - -
25/03:00am - - - - - WNW 20 26 11 14 - - -
25/02:30am - - - - - WNW 13 17 7 9 - - -
25/02:00am - - - - - NW 17 19 9 10 - - -
25/01:30am - - - - - NW 19 22 10 12 - - -
25/01:00am - - - - - NW 17 22 9 12 - - -
25/12:30am - - - - - NNE 20 28 11 15 - - -
25/12:00am - - - - - NE 19 22 10 12 - - -
 
Date/Time
EDT
Temp
°C
App
Temp
°C
Dew
Point
Rel
Hum
%
Delta-T
°C
Wind Press
QNH
hPa
Press
MSL
hPa
Rain
since 9 am
mm
Dir
 
Spd
km/h
Gust
km/h
Spd
kts
Gust
kts
24/11:30pm - - - - - ENE 15 19 8 10 - - -

Other Formats:

Comma delimited format used in spreadsheet applications
http://www.bom.gov.au/fwo/IDN60801/IDN60801.95756.axf

JavaScript Object Notation format (JSON) in row-major order
http://www.bom.gov.au/fwo/IDN60801/IDN60801.95756.json